sensor_id;sensor_type;location;lat;lon;timestamp;pressure;altitude;pressure_sealevel;temperature;humidity
35910;BME280;22004;49.120;-0.200;2023-02-22T00:00:51;101143.59;;;10.28;70.95
35910;BME280;22004;49.120;-0.200;2023-02-22T00:03:24;101144.06;;;9.82;72.64
35910;BME280;22004;49.120;-0.200;2023-02-22T00:05:56;101143.09;;;10.16;71.88
35910;BME280;22004;49.120;-0.200;2023-02-22T00:08:27;101143.25;;;10.15;71.48
35910;BME280;22004;49.120;-0.200;2023-02-22T00:10:55;101140.78;;;10.29;71.56
35910;BME280;22004;49.120;-0.200;2023-02-22T00:13:20;101141.72;;;10.12;72.01
35910;BME280;22004;49.120;-0.200;2023-02-22T00:15:49;101137.72;;;10.32;70.98
35910;BME280;22004;49.120;-0.200;2023-02-22T00:18:16;101129.72;;;10.24;71.63
35910;BME280;22004;49.120;-0.200;2023-02-22T00:20:43;101132.72;;;10.29;71.22
35910;BME280;22004;49.120;-0.200;2023-02-22T00:23:15;101135.53;;;10.20;71.37
35910;BME280;22004;49.120;-0.200;2023-02-22T00:25:43;101129.00;;;10.22;71.58
35910;BME280;22004;49.120;-0.200;2023-02-22T00:28:09;101120.97;;;10.30;71.69
35910;BME280;22004;49.120;-0.200;2023-02-22T00:30:35;101118.94;;;10.08;72.19
35910;BME280;22004;49.120;-0.200;2023-02-22T00:33:01;101119.94;;;10.07;72.21
35910;BME280;22004;49.120;-0.200;2023-02-22T00:35:28;101118.59;;;10.11;72.08
35910;BME280;22004;49.120;-0.200;2023-02-22T00:37:59;101117.28;;;10.31;71.11
35910;BME280;22004;49.120;-0.200;2023-02-22T00:40:27;101116.25;;;10.08;72.02
35910;BME280;22004;49.120;-0.200;2023-02-22T00:42:55;101120.75;;;9.99;72.23
35910;BME280;22004;49.120;-0.200;2023-02-22T00:45:22;101112.06;;;9.97;72.31
35910;BME280;22004;49.120;-0.200;2023-02-22T00:47:48;101107.03;;;9.94;72.48
35910;BME280;22004;49.120;-0.200;2023-02-22T00:50:16;101106.53;;;9.91;72.50
35910;BME280;22004;49.120;-0.200;2023-02-22T00:52:42;101107.19;;;9.93;72.51
35910;BME280;22004;49.120;-0.200;2023-02-22T00:55:09;101107.03;;;9.86;72.58
35910;BME280;22004;49.120;-0.200;2023-02-22T00:57:35;101112.22;;;9.88;72.51
35910;BME280;22004;49.120;-0.200;2023-02-22T01:00:04;101106.53;;;9.82;72.60
35910;BME280;22004;49.120;-0.200;2023-02-22T01:02:37;101100.81;;;9.77;72.61
35910;BME280;22004;49.120;-0.200;2023-02-22T01:05:04;101103.69;;;9.76;72.77
35910;BME280;22004;49.120;-0.200;2023-02-22T01:07:29;101106.53;;;9.82;72.83
35910;BME280;22004;49.120;-0.200;2023-02-22T01:09:55;101111.88;;;9.74;72.95
35910;BME280;22004;49.120;-0.200;2023-02-22T01:12:20;101111.53;;;9.77;73.01
35910;BME280;22004;49.120;-0.200;2023-02-22T01:14:47;101108.88;;;9.77;73.04
35910;BME280;22004;49.120;-0.200;2023-02-22T01:17:12;101108.34;;;9.74;73.23
35910;BME280;22004;49.120;-0.200;2023-02-22T01:19:37;101088.75;;;9.73;73.33
35910;BME280;22004;49.120;-0.200;2023-02-22T01:22:07;101098.78;;;9.79;72.89
35910;BME280;22004;49.120;-0.200;2023-02-22T01:24:32;101097.81;;;9.80;72.94
35910;BME280;22004;49.120;-0.200;2023-02-22T01:26:57;101101.84;;;9.76;73.19
35910;BME280;22004;49.120;-0.200;2023-02-22T01:29:23;101095.63;;;9.76;73.15
35910;BME280;22004;49.120;-0.200;2023-02-22T01:31:53;101088.59;;;9.75;72.94
35910;BME280;22004;49.120;-0.200;2023-02-22T01:34:20;101090.09;;;9.77;73.05
35910;BME280;22004;49.120;-0.200;2023-02-22T01:36:45;101091.09;;;9.76;72.81
35910;BME280;22004;49.120;-0.200;2023-02-22T01:39:11;101087.06;;;9.72;72.83
35910;BME280;22004;49.120;-0.200;2023-02-22T01:41:36;101090.44;;;9.66;73.24
35910;BME280;22004;49.120;-0.200;2023-02-22T01:46:55;101094.09;;;9.73;72.78
35910;BME280;22004;49.120;-0.200;2023-02-22T01:49:21;101098.78;;;9.63;73.02
35910;BME280;22004;49.120;-0.200;2023-02-22T01:51:49;101100.28;;;9.57;73.11
35910;BME280;22004;49.120;-0.200;2023-02-22T01:54:30;101098.13;;;9.61;72.99
35910;BME280;22004;49.120;-0.200;2023-02-22T01:57:06;101106.00;;;9.63;73.30
35910;BME280;22004;49.120;-0.200;2023-02-22T01:59:39;101095.09;;;9.64;73.08
35910;BME280;22004;49.120;-0.200;2023-02-22T02:02:07;101102.97;;;9.57;73.08
35910;BME280;22004;49.120;-0.200;2023-02-22T02:04:33;101096.94;;;9.64;73.17
35910;BME280;22004;49.120;-0.200;2023-02-22T02:07:02;101092.25;;;9.57;72.94
35910;BME280;22004;49.120;-0.200;2023-02-22T02:12:06;101095.25;;;9.54;73.08
35910;BME280;22004;49.120;-0.200;2023-02-22T02:14:32;101094.41;;;9.54;73.01
35910;BME280;22004;49.120;-0.200;2023-02-22T02:16:58;101088.41;;;9.60;72.97
35910;BME280;22004;49.120;-0.200;2023-02-22T02:27:24;101074.47;;;9.48;73.13
35910;BME280;22004;49.120;-0.200;2023-02-22T02:35:24;101066.44;;;9.48;73.40
35910;BME280;22004;49.120;-0.200;2023-02-22T02:41:42;101070.09;;;9.39;73.28
35910;BME280;22004;49.120;-0.200;2023-02-22T02:43:50;101067.63;;;9.46;73.25
35910;BME280;22004;49.120;-0.200;2023-02-22T02:46:26;101071.13;;;9.38;73.35
35910;BME280;22004;49.120;-0.200;2023-02-22T02:48:59;101072.31;;;9.52;72.84
35910;BME280;22004;49.120;-0.200;2023-02-22T02:51:38;101069.63;;;9.52;72.83
35910;BME280;22004;49.120;-0.200;2023-02-22T02:54:05;101078.31;;;9.38;73.15
35910;BME280;22004;49.120;-0.200;2023-02-22T02:56:32;101075.31;;;9.41;72.92
35910;BME280;22004;49.120;-0.200;2023-02-22T02:58:58;101074.16;;;9.35;73.29
35910;BME280;22004;49.120;-0.200;2023-02-22T03:04:25;101073.47;;;9.41;72.76
35910;BME280;22004;49.120;-0.200;2023-02-22T03:09:47;101056.72;;;9.39;72.66
35910;BME280;22004;49.120;-0.200;2023-02-22T03:12:39;101060.59;;;9.45;72.55
35910;BME280;22004;49.120;-0.200;2023-02-22T03:18:04;101058.41;;;9.40;72.22
35910;BME280;22004;49.120;-0.200;2023-02-22T03:21:20;101053.53;;;9.44;72.21
35910;BME280;22004;49.120;-0.200;2023-02-22T03:23:38;101041.97;;;9.43;72.23
35910;BME280;22004;49.120;-0.200;2023-02-22T03:26:13;101044.84;;;9.50;72.26
35910;BME280;22004;49.120;-0.200;2023-02-22T03:28:45;101051.06;;;9.50;72.09
35910;BME280;22004;49.120;-0.200;2023-02-22T03:31:24;101050.22;;;9.50;71.94
35910;BME280;22004;49.120;-0.200;2023-02-22T03:33:53;101053.38;;;9.45;71.73
35910;BME280;22004;49.120;-0.200;2023-02-22T03:36:34;101047.69;;;9.48;71.60
35910;BME280;22004;49.120;-0.200;2023-02-22T03:39:05;101040.81;;;9.38;71.93
35910;BME280;22004;49.120;-0.200;2023-02-22T03:41:34;101038.16;;;9.46;71.62
35910;BME280;22004;49.120;-0.200;2023-02-22T03:44:11;101032.78;;;9.46;71.87
35910;BME280;22004;49.120;-0.200;2023-02-22T03:46:38;101035.44;;;9.38;71.62
35910;BME280;22004;49.120;-0.200;2023-02-22T03:51:34;101025.91;;;9.35;71.43
35910;BME280;22004;49.120;-0.200;2023-02-22T03:54:01;101018.19;;;9.32;71.54
35910;BME280;22004;49.120;-0.200;2023-02-22T03:56:32;101023.38;;;9.33;71.41
35910;BME280;22004;49.120;-0.200;2023-02-22T03:59:05;101025.38;;;9.40;71.39
35910;BME280;22004;49.120;-0.200;2023-02-22T04:01:31;101035.63;;;9.36;71.56
35910;BME280;22004;49.120;-0.200;2023-02-22T04:03:57;101033.94;;;9.35;71.01
35910;BME280;22004;49.120;-0.200;2023-02-22T04:06:22;101031.44;;;9.42;71.56
35910;BME280;22004;49.120;-0.200;2023-02-22T04:08:47;101031.41;;;9.33;71.34
35910;BME280;22004;49.120;-0.200;2023-02-22T04:11:13;101037.13;;;9.30;71.11
35910;BME280;22004;49.120;-0.200;2023-02-22T04:13:38;101039.59;;;9.24;71.01
35910;BME280;22004;49.120;-0.200;2023-02-22T04:16:03;101041.66;;;9.30;71.38
35910;BME280;22004;49.120;-0.200;2023-02-22T04:18:29;101031.91;;;9.21;71.02
35910;BME280;22004;49.120;-0.200;2023-02-22T04:20:54;101038.09;;;9.29;70.94
35910;BME280;22004;49.120;-0.200;2023-02-22T04:23:20;101035.78;;;9.26;70.79
35910;BME280;22004;49.120;-0.200;2023-02-22T04:25:45;101054.53;;;9.26;71.21
35910;BME280;22004;49.120;-0.200;2023-02-22T04:28:10;101054.19;;;9.38;70.67
35910;BME280;22004;49.120;-0.200;2023-02-22T04:30:36;101051.69;;;9.44;70.71
35910;BME280;22004;49.120;-0.200;2023-02-22T04:33:01;101056.25;;;9.52;70.41
35910;BME280;22004;49.120;-0.200;2023-02-22T04:35:26;101056.91;;;9.46;70.14
35910;BME280;22004;49.120;-0.200;2023-02-22T04:37:52;101056.06;;;9.53;70.67
35910;BME280;22004;49.120;-0.200;2023-02-22T04:40:17;101055.75;;;9.56;70.15
35910;BME280;22004;49.120;-0.200;2023-02-22T04:42:43;101050.16;;;9.33;70.53
35910;BME280;22004;49.120;-0.200;2023-02-22T04:45:08;101056.56;;;9.49;71.64
35910;BME280;22004;49.120;-0.200;2023-02-22T04:47:35;101061.06;;;9.48;72.36
35910;BME280;22004;49.120;-0.200;2023-02-22T04:50:02;101058.75;;;9.86;70.64
35910;BME280;22004;49.120;-0.200;2023-02-22T04:52:28;101055.72;;;9.40;73.04
35910;BME280;22004;49.120;-0.200;2023-02-22T04:54:53;101062.44;;;9.61;72.35
35910;BME280;22004;49.120;-0.200;2023-02-22T04:57:18;101057.59;;;9.72;71.66
35910;BME280;22004;49.120;-0.200;2023-02-22T04:59:44;101058.94;;;9.76;71.69
35910;BME280;22004;49.120;-0.200;2023-02-22T05:02:09;101059.09;;;9.75;71.73
35910;BME280;22004;49.120;-0.200;2023-02-22T05:04:37;101055.25;;;9.45;73.08
35910;BME280;22004;49.120;-0.200;2023-02-22T05:07:02;101057.09;;;9.61;72.31
35910;BME280;22004;49.120;-0.200;2023-02-22T05:09:28;101061.28;;;9.71;72.50
35910;BME280;22004;49.120;-0.200;2023-02-22T05:11:53;101062.97;;;9.80;72.03
35910;BME280;22004;49.120;-0.200;2023-02-22T05:14:19;101065.13;;;9.85;71.86
35910;BME280;22004;49.120;-0.200;2023-02-22T05:16:44;101070.31;;;9.78;71.97
35910;BME280;22004;49.120;-0.200;2023-02-22T05:19:09;101068.16;;;9.90;72.43
35910;BME280;22004;49.120;-0.200;2023-02-22T05:21:35;101067.63;;;9.78;72.23
35910;BME280;22004;49.120;-0.200;2023-02-22T05:24:00;101070.31;;;10.03;71.57
35910;BME280;22004;49.120;-0.200;2023-02-22T05:26:25;101069.47;;;9.94;71.58
35910;BME280;22004;49.120;-0.200;2023-02-22T05:28:51;101074.34;;;10.07;71.53
35910;BME280;22004;49.120;-0.200;2023-02-22T05:31:16;101071.50;;;10.00;72.08
35910;BME280;22004;49.120;-0.200;2023-02-22T05:33:42;101067.81;;;10.01;71.71
35910;BME280;22004;49.120;-0.200;2023-02-22T05:36:08;101071.50;;;9.92;72.51
35910;BME280;22004;49.120;-0.200;2023-02-22T05:38:35;101070.00;;;9.90;71.94
35910;BME280;22004;49.120;-0.200;2023-02-22T05:41:07;101070.31;;;10.03;71.78
35910;BME280;22004;49.120;-0.200;2023-02-22T05:43:32;101074.50;;;9.97;71.83
35910;BME280;22004;49.120;-0.200;2023-02-22T05:45:57;101077.38;;;9.96;71.81
35910;BME280;22004;49.120;-0.200;2023-02-22T05:48:23;101083.38;;;9.98;72.04
35910;BME280;22004;49.120;-0.200;2023-02-22T05:50:48;101074.34;;;9.99;71.64
35910;BME280;22004;49.120;-0.200;2023-02-22T05:53:14;101075.03;;;10.01;71.70
35910;BME280;22004;49.120;-0.200;2023-02-22T05:55:39;101074.84;;;10.02;71.65
35910;BME280;22004;49.120;-0.200;2023-02-22T05:58:04;101076.53;;;9.95;71.94
35910;BME280;22004;49.120;-0.200;2023-02-22T06:00:30;101082.53;;;9.89;72.47
35910;BME280;22004;49.120;-0.200;2023-02-22T06:03:01;101077.69;;;9.93;72.10
35910;BME280;22004;49.120;-0.200;2023-02-22T06:05:28;101081.72;;;9.89;72.18
35910;BME280;22004;49.120;-0.200;2023-02-22T06:07:54;101073.50;;;9.98;72.06
35910;BME280;22004;49.120;-0.200;2023-02-22T06:10:20;101084.91;;;10.00;71.97
35910;BME280;22004;49.120;-0.200;2023-02-22T06:12:47;101078.88;;;10.15;71.57
35910;BME280;22004;49.120;-0.200;2023-02-22T06:15:17;101076.50;;;10.03;71.64
35910;BME280;22004;49.120;-0.200;2023-02-22T06:17:43;101075.16;;;9.99;72.18
35910;BME280;22004;49.120;-0.200;2023-02-22T06:20:10;101074.84;;;9.94;72.25
35910;BME280;22004;49.120;-0.200;2023-02-22T06:22:36;101074.69;;;9.88;72.59
35910;BME280;22004;49.120;-0.200;2023-02-22T06:25:04;101076.84;;;9.92;72.89
35910;BME280;22004;49.120;-0.200;2023-02-22T06:27:30;101081.56;;;9.90;72.79
35910;BME280;22004;49.120;-0.200;2023-02-22T06:29:56;101068.81;;;9.76;73.91
35910;BME280;22004;49.120;-0.200;2023-02-22T06:32:21;101071.66;;;9.58;74.31
35910;BME280;22004;49.120;-0.200;2023-02-22T06:34:47;101072.69;;;9.65;74.06
35910;BME280;22004;49.120;-0.200;2023-02-22T06:37:12;101073.31;;;9.51;75.60
35910;BME280;22004;49.120;-0.200;2023-02-22T06:39:38;101078.03;;;9.57;75.20
35910;BME280;22004;49.120;-0.200;2023-02-22T06:42:03;101077.19;;;9.73;73.81
35910;BME280;22004;49.120;-0.200;2023-02-22T06:44:29;101081.38;;;9.92;73.28
35910;BME280;22004;49.120;-0.200;2023-02-22T06:46:54;101084.91;;;10.00;73.73
35910;BME280;22004;49.120;-0.200;2023-02-22T06:49:20;101089.75;;;9.89;73.29
35910;BME280;22004;49.120;-0.200;2023-02-22T06:51:46;101083.56;;;9.96;72.90
35910;BME280;22004;49.120;-0.200;2023-02-22T06:54:11;101090.94;;;9.94;73.21
35910;BME280;22004;49.120;-0.200;2023-02-22T06:56:37;101090.59;;;9.97;73.11
35910;BME280;22004;49.120;-0.200;2023-02-22T06:59:02;101092.28;;;10.06;73.37
35910;BME280;22004;49.120;-0.200;2023-02-22T07:01:28;101090.78;;;9.96;72.92
35910;BME280;22004;49.120;-0.200;2023-02-22T07:03:54;101096.16;;;9.96;73.23
35910;BME280;22004;49.120;-0.200;2023-02-22T07:06:19;101090.59;;;10.05;72.67
35910;BME280;22004;49.120;-0.200;2023-02-22T07:08:45;101095.13;;;10.05;72.34
35910;BME280;22004;49.120;-0.200;2023-02-22T07:11:10;101098.16;;;10.02;72.84
35910;BME280;22004;49.120;-0.200;2023-02-22T07:13:35;101098.16;;;10.10;72.31
35910;BME280;22004;49.120;-0.200;2023-02-22T07:16:01;101103.19;;;10.05;72.62
35910;BME280;22004;49.120;-0.200;2023-02-22T07:18:26;101105.03;;;10.04;72.83
35910;BME280;22004;49.120;-0.200;2023-02-22T07:20:52;101102.53;;;9.95;73.10
35910;BME280;22004;49.120;-0.200;2023-02-22T07:23:18;101114.56;;;9.99;72.79
35910;BME280;22004;49.120;-0.200;2023-02-22T07:25:44;101102.50;;;10.03;72.67
35910;BME280;22004;49.120;-0.200;2023-02-22T07:28:09;101110.41;;;10.04;72.78
35910;BME280;22004;49.120;-0.200;2023-02-22T07:30:35;101105.03;;;10.04;72.78
35910;BME280;22004;49.120;-0.200;2023-02-22T07:33:04;101111.88;;;9.99;72.99
35910;BME280;22004;49.120;-0.200;2023-02-22T07:35:38;101117.09;;;10.17;72.54
35910;BME280;22004;49.120;-0.200;2023-02-22T07:38:07;101118.59;;;10.11;73.04
35910;BME280;22004;49.120;-0.200;2023-02-22T07:40:33;101118.44;;;10.04;72.73
35910;BME280;22004;49.120;-0.200;2023-02-22T07:43:14;101121.78;;;9.98;73.37
35910;BME280;22004;49.120;-0.200;2023-02-22T07:45:40;101121.66;;;10.24;72.10
35910;BME280;22004;49.120;-0.200;2023-02-22T07:48:05;101124.78;;;10.03;73.36
35910;BME280;22004;49.120;-0.200;2023-02-22T07:50:32;101123.47;;;10.16;73.33
35910;BME280;22004;49.120;-0.200;2023-02-22T07:53:01;101132.34;;;10.16;72.82
35910;BME280;22004;49.120;-0.200;2023-02-22T07:55:28;101132.19;;;10.01;74.17
35910;BME280;22004;49.120;-0.200;2023-02-22T07:58:00;101136.03;;;10.07;75.05
35910;BME280;22004;49.120;-0.200;2023-02-22T08:03:00;101141.22;;;10.17;73.24
35910;BME280;22004;49.120;-0.200;2023-02-22T08:05:27;101138.06;;;10.21;73.03
35910;BME280;22004;49.120;-0.200;2023-02-22T08:07:53;101137.41;;;10.27;72.64
35910;BME280;22004;49.120;-0.200;2023-02-22T08:10:21;101139.56;;;10.32;72.57
35910;BME280;22004;49.120;-0.200;2023-02-22T08:12:47;101139.72;;;10.14;73.57
35910;BME280;22004;49.120;-0.200;2023-02-22T08:15:26;101145.63;;;10.26;72.68
35910;BME280;22004;49.120;-0.200;2023-02-22T08:17:58;101137.91;;;10.31;72.61
35910;BME280;22004;49.120;-0.200;2023-02-22T08:20:24;101137.72;;;9.92;75.41
35910;BME280;22004;49.120;-0.200;2023-02-22T08:22:50;101132.34;;;10.00;73.84
35910;BME280;22004;49.120;-0.200;2023-02-22T08:25:17;101140.06;;;10.52;71.73
35910;BME280;22004;49.120;-0.200;2023-02-22T08:27:43;101142.75;;;10.52;71.62
35910;BME280;22004;49.120;-0.200;2023-02-22T08:30:18;101137.22;;;10.37;72.12
35910;BME280;22004;49.120;-0.200;2023-02-22T08:32:47;101135.69;;;10.43;72.22
35910;BME280;22004;49.120;-0.200;2023-02-22T08:35:14;101136.03;;;10.15;73.88
35910;BME280;22004;49.120;-0.200;2023-02-22T08:37:44;101135.56;;;10.36;72.73
35910;BME280;22004;49.120;-0.200;2023-02-22T08:40:11;101131.19;;;10.10;73.65
35910;BME280;22004;49.120;-0.200;2023-02-22T08:42:36;101124.97;;;10.10;74.09
35910;BME280;22004;49.120;-0.200;2023-02-22T08:45:02;101129.31;;;10.52;71.79
35910;BME280;22004;49.120;-0.200;2023-02-22T08:47:27;101126.97;;;10.16;73.53
35910;BME280;22004;49.120;-0.200;2023-02-22T08:49:52;101135.88;;;10.17;73.86
35910;BME280;22004;49.120;-0.200;2023-02-22T08:52:19;101128.50;;;10.35;72.66
35910;BME280;22004;49.120;-0.200;2023-02-22T08:54:45;101129.72;;;10.24;73.48
35910;BME280;22004;49.120;-0.200;2023-02-22T08:57:11;101128.47;;;10.51;71.91
35910;BME280;22004;49.120;-0.200;2023-02-22T08:59:37;101133.34;;;10.56;72.12
35910;BME280;22004;49.120;-0.200;2023-02-22T09:02:02;101134.84;;;10.58;71.92
35910;BME280;22004;49.120;-0.200;2023-02-22T09:04:27;101132.31;;;10.57;72.00
35910;BME280;22004;49.120;-0.200;2023-02-22T09:06:53;101125.06;;;10.74;71.42
35910;BME280;22004;49.120;-0.200;2023-02-22T09:09:19;101125.56;;;10.77;71.32
35910;BME280;22004;49.120;-0.200;2023-02-22T09:11:46;101131.75;;;10.86;70.51
35910;BME280;22004;49.120;-0.200;2023-02-22T09:14:12;101135.66;;;10.59;72.39
35910;BME280;22004;49.120;-0.200;2023-02-22T09:16:39;101129.47;;;10.58;72.51
35910;BME280;22004;49.120;-0.200;2023-02-22T09:19:04;101135.69;;;10.51;72.42
35910;BME280;22004;49.120;-0.200;2023-02-22T09:21:30;101128.44;;;10.68;72.27
35910;BME280;22004;49.120;-0.200;2023-02-22T09:23:55;101130.16;;;10.52;72.27
35910;BME280;22004;49.120;-0.200;2023-02-22T09:26:21;101126.16;;;10.24;73.75
35910;BME280;22004;49.120;-0.200;2023-02-22T09:28:48;101125.28;;;10.48;72.42
35910;BME280;22004;49.120;-0.200;2023-02-22T09:31:14;101123.66;;;10.30;73.41
35910;BME280;22004;49.120;-0.200;2023-02-22T09:33:40;101121.63;;;10.41;73.07
35910;BME280;22004;49.120;-0.200;2023-02-22T09:36:05;101128.00;;;10.31;73.76
35910;BME280;22004;49.120;-0.200;2023-02-22T09:38:31;101126.16;;;10.24;73.95
35910;BME280;22004;49.120;-0.200;2023-02-22T09:44:09;101129.66;;;10.16;75.11
35910;BME280;22004;49.120;-0.200;2023-02-22T09:46:40;101135.03;;;10.16;74.91
35910;BME280;22004;49.120;-0.200;2023-02-22T09:52:04;101137.41;;;10.35;73.49
35910;BME280;22004;49.120;-0.200;2023-02-22T09:54:47;101133.69;;;10.12;75.48
35910;BME280;22004;49.120;-0.200;2023-02-22T09:57:20;101135.03;;;10.41;73.77
35910;BME280;22004;49.120;-0.200;2023-02-22T09:59:58;101132.00;;;10.60;72.38
35910;BME280;22004;49.120;-0.200;2023-02-22T10:02:30;101143.94;;;10.41;73.29
35910;BME280;22004;49.120;-0.200;2023-02-22T10:05:07;101142.09;;;10.50;73.20
35910;BME280;22004;49.120;-0.200;2023-02-22T10:07:47;101139.22;;;10.10;75.59
35910;BME280;22004;49.120;-0.200;2023-02-22T10:10:17;101139.06;;;10.12;76.43
35910;BME280;22004;49.120;-0.200;2023-02-22T10:13:00;101141.03;;;10.67;73.21
35910;BME280;22004;49.120;-0.200;2023-02-22T10:15:50;101143.00;;;10.81;71.63
35910;BME280;22004;49.120;-0.200;2023-02-22T10:23:37;101150.81;;;10.35;74.04
35910;BME280;22004;49.120;-0.200;2023-02-22T10:26:12;101147.28;;;10.59;73.40
35910;BME280;22004;49.120;-0.200;2023-02-22T10:28:43;101149.09;;;10.59;72.73
35910;BME280;22004;49.120;-0.200;2023-02-22T10:31:19;101139.88;;;10.61;72.48
35910;BME280;22004;49.120;-0.200;2023-02-22T10:33:46;101137.69;;;10.57;72.81
35910;BME280;22004;49.120;-0.200;2023-02-22T10:36:17;101136.84;;;10.65;72.42
35910;BME280;22004;49.120;-0.200;2023-02-22T10:38:53;101145.81;;;10.24;74.39
35910;BME280;22004;49.120;-0.200;2023-02-22T10:41:22;101136.13;;;10.79;72.58
35910;BME280;22004;49.120;-0.200;2023-02-22T10:43:49;101131.13;;;10.68;72.52
35910;BME280;22004;49.120;-0.200;2023-02-22T10:46:16;101126.06;;;10.73;72.11
35910;BME280;22004;49.120;-0.200;2023-02-22T10:48:44;101129.41;;;10.83;71.34
35910;BME280;22004;49.120;-0.200;2023-02-22T10:51:11;101131.81;;;10.70;72.26
35910;BME280;22004;49.120;-0.200;2023-02-22T10:53:38;101136.81;;;10.73;72.17
35910;BME280;22004;49.120;-0.200;2023-02-22T10:56:18;101137.19;;;10.53;72.85
35910;BME280;22004;49.120;-0.200;2023-02-22T10:58:56;101136.69;;;10.58;72.48
35910;BME280;22004;49.120;-0.200;2023-02-22T11:04:02;101135.00;;;10.57;73.08
35910;BME280;22004;49.120;-0.200;2023-02-22T11:06:30;101135.00;;;10.65;73.48
35910;BME280;22004;49.120;-0.200;2023-02-22T11:09:04;101134.53;;;10.45;75.10
35910;BME280;22004;49.120;-0.200;2023-02-22T11:11:30;101132.97;;;10.59;73.88
35910;BME280;22004;49.120;-0.200;2023-02-22T11:13:56;101132.66;;;10.62;73.40
35910;BME280;22004;49.120;-0.200;2023-02-22T11:16:34;101129.25;;;10.76;72.85
35910;BME280;22004;49.120;-0.200;2023-02-22T11:21:30;101130.94;;;10.77;73.01
35910;BME280;22004;49.120;-0.200;2023-02-22T11:24:07;101123.88;;;10.84;72.98
35910;BME280;22004;49.120;-0.200;2023-02-22T11:26:43;101122.22;;;10.67;73.27
35910;BME280;22004;49.120;-0.200;2023-02-22T11:29:23;101126.78;;;10.67;73.17
35910;BME280;22004;49.120;-0.200;2023-02-22T11:31:50;101123.88;;;10.76;72.58
35910;BME280;22004;49.120;-0.200;2023-02-22T11:34:27;101124.59;;;10.62;75.33
35910;BME280;22004;49.120;-0.200;2023-02-22T11:36:52;101113.22;;;10.52;74.32
35910;BME280;22004;49.120;-0.200;2023-02-22T11:39:23;101109.44;;;10.85;72.85
35910;BME280;22004;49.120;-0.200;2023-02-22T11:41:49;101111.63;;;10.74;73.13
35910;BME280;22004;49.120;-0.200;2023-02-22T11:44:28;101111.00;;;10.64;75.99
35910;BME280;22004;49.120;-0.200;2023-02-22T11:46:56;101114.69;;;10.63;74.22
35910;BME280;22004;49.120;-0.200;2023-02-22T11:49:36;101109.94;;;10.89;72.07
35910;BME280;22004;49.120;-0.200;2023-02-22T12:03:33;101099.09;;;10.66;76.06
35910;BME280;22004;49.120;-0.200;2023-02-22T12:06:59;101101.81;;;10.33;76.32
35910;BME280;22004;49.120;-0.200;2023-02-22T12:19:56;101085.66;;;10.58;76.05
35910;BME280;22004;49.120;-0.200;2023-02-22T12:22:31;101086.81;;;10.64;74.62
35910;BME280;22004;49.120;-0.200;2023-02-22T12:25:02;101082.41;;;10.79;74.15
35910;BME280;22004;49.120;-0.200;2023-02-22T12:27:49;101080.94;;;10.68;73.78
35910;BME280;22004;49.120;-0.200;2023-02-22T12:30:32;101085.53;;;10.51;74.36
35910;BME280;22004;49.120;-0.200;2023-02-22T12:33:27;101084.75;;;10.82;73.07
35910;BME280;22004;49.120;-0.200;2023-02-22T12:35:55;101085.97;;;10.79;73.25
35910;BME280;22004;49.120;-0.200;2023-02-22T12:38:29;101076.91;;;10.72;74.13
35910;BME280;22004;49.120;-0.200;2023-02-22T12:43:35;101085.78;;;10.81;73.33
35910;BME280;22004;49.120;-0.200;2023-02-22T12:48:48;101087.97;;;10.77;73.93
35910;BME280;22004;49.120;-0.200;2023-02-22T13:00:06;101083.03;;;10.42;76.63
35910;BME280;22004;49.120;-0.200;2023-02-22T13:02:43;101083.06;;;10.25;77.12
35910;BME280;22004;49.120;-0.200;2023-02-22T13:05:15;101081.94;;;10.75;74.60
35910;BME280;22004;49.120;-0.200;2023-02-22T13:13:05;101078.56;;;11.12;74.56
35910;BME280;22004;49.120;-0.200;2023-02-22T13:15:39;101075.56;;;11.38;71.13
35910;BME280;22004;49.120;-0.200;2023-02-22T13:18:15;101076.88;;;11.20;71.95
35910;BME280;22004;49.120;-0.200;2023-02-22T13:20:53;101080.97;;;10.60;77.25
35910;BME280;22004;49.120;-0.200;2023-02-22T13:26:21;101086.31;;;10.68;75.56
35910;BME280;22004;49.120;-0.200;2023-02-22T13:39:34;101082.47;;;11.10;73.35
35910;BME280;22004;49.120;-0.200;2023-02-22T13:42:37;101079.47;;;11.05;73.86
35910;BME280;22004;49.120;-0.200;2023-02-22T13:45:45;101079.47;;;11.05;73.80
35910;BME280;22004;49.120;-0.200;2023-02-22T13:53:54;101075.75;;;10.67;76.53
35910;BME280;22004;49.120;-0.200;2023-02-22T13:56:22;101077.72;;;10.81;74.98
35910;BME280;22004;49.120;-0.200;2023-02-22T13:58:51;101071.84;;;11.17;73.29
35910;BME280;22004;49.120;-0.200;2023-02-22T14:06:44;101059.94;;;11.11;73.30
35910;BME280;22004;49.120;-0.200;2023-02-22T14:09:15;101068.13;;;11.18;73.68
35910;BME280;22004;49.120;-0.200;2023-02-22T14:11:48;101065.84;;;10.67;77.24
35910;BME280;22004;49.120;-0.200;2023-02-22T14:14:18;101063.59;;;10.79;76.13
35910;BME280;22004;49.120;-0.200;2023-02-22T14:19:59;101068.78;;;10.88;75.18
35910;BME280;22004;49.120;-0.200;2023-02-22T14:22:27;101062.97;;;10.77;76.15
35910;BME280;22004;49.120;-0.200;2023-02-22T14:24:53;101062.13;;;11.07;74.15
35910;BME280;22004;49.120;-0.200;2023-02-22T14:27:18;101068.66;;;10.74;76.61
35910;BME280;22004;49.120;-0.200;2023-02-22T14:29:55;101065.19;;;11.04;73.87
35910;BME280;22004;49.120;-0.200;2023-02-22T14:32:30;101070.34;;;11.14;73.93
35910;BME280;22004;49.120;-0.200;2023-02-22T14:34:57;101071.72;;;10.63;77.81
35910;BME280;22004;49.120;-0.200;2023-02-22T14:37:27;101069.84;;;10.79;77.37
35910;BME280;22004;49.120;-0.200;2023-02-22T14:40:21;101062.44;;;10.81;75.90
35910;BME280;22004;49.120;-0.200;2023-02-22T14:43:10;101070.56;;;11.04;74.46
35910;BME280;22004;49.120;-0.200;2023-02-22T14:45:47;101061.88;;;11.25;73.94
35910;BME280;22004;49.120;-0.200;2023-02-22T14:48:35;101067.91;;;11.27;72.96
35910;BME280;22004;49.120;-0.200;2023-02-22T14:53:43;101068.47;;;10.83;74.89
35910;BME280;22004;49.120;-0.200;2023-02-22T14:56:22;101071.66;;;10.79;75.24
35910;BME280;22004;49.120;-0.200;2023-02-22T14:58:54;101066.25;;;10.95;73.76
35910;BME280;22004;49.120;-0.200;2023-02-22T15:01:24;101064.63;;;10.78;75.33